Time;durP1;ratioP1;P1;durP2;ratioP2;P2;SDS_P1;SDS_P2;PMS_P1;PMS_P2;Temp;Humidity;BMP_temperature;BMP_pressure;BME280_temperature;BME280_humidity;BME280_pressure;Samples;Min_cycle;Max_cycle;Signal;HPM_P1;HPM_P2
2022/06/23 00:00:58;;;;;;;;;;;19.30;73.90;;;;;;5056705;28;19928;-80
2022/06/23 00:03:27;;;;;;;;;;;19.30;75.00;;;;;;5055470;28;19925;-79
2022/06/23 00:05:56;;;;;;;;;;;19.30;75.00;;;;;;5075553;28;19928;-79
2022/06/23 00:08:23;;;;;;;;;;;19.30;75.50;;;;;;5075581;28;20038;-81
2022/06/23 00:10:51;;;;;;;;;;;19.30;75.20;;;;;;5055459;28;19921;-80
2022/06/23 00:13:22;;;;;;;;;;;19.30;75.50;;;;;;5055251;28;19929;-80
2022/06/23 00:15:51;;;;;;;;;;;19.30;75.60;;;;;;5055917;28;19952;-80
2022/06/23 00:18:20;;;;;;;;;;;19.30;75.70;;;;;;5057039;28;19925;-81
2022/06/23 00:20:48;;;;;;;;;;;19.30;75.70;;;;;;5069953;28;19924;-82
2022/06/23 00:23:17;;;;;;;;;;;19.30;75.90;;;;;;5056389;28;19925;-80
2022/06/23 00:25:45;;;;;;;;;;;19.20;76.00;;;;;;5059718;28;19925;-81
2022/06/23 00:28:17;;;;;;;;;;;19.20;76.50;;;;;;5054744;28;20371;-80
2022/06/23 00:30:44;;;;;;;;;;;19.20;75.60;;;;;;5035780;28;20275;-81
2022/06/23 00:33:16;;;;;;;;;;;19.20;76.50;;;;;;5039688;28;19983;-81
2022/06/23 00:35:45;;;;;;;;;;;19.10;76.50;;;;;;5054684;28;19925;-81
2022/06/23 00:38:24;;;;;;;;;;;19.10;77.20;;;;;;5067779;28;19931;-80
2022/06/23 00:40:51;;;;;;;;;;;19.10;77.00;;;;;;5055833;28;19925;-81
2022/06/23 00:43:18;;;;;;;;;;;19.00;76.90;;;;;;5056135;28;19933;-80
2022/06/23 00:45:47;;;;;;;;;;;19.00;77.30;;;;;;5056166;28;19925;-80
2022/06/23 00:48:17;;;;;;;;;;;19.00;77.40;;;;;;5042214;28;20404;-81
2022/06/23 00:50:48;;;;;;;;;;;19.00;76.90;;;;;;5036344;28;19925;-81
2022/06/23 00:53:18;;;;;;;;;;;18.90;77.60;;;;;;5037179;28;19925;-81
2022/06/23 00:55:50;;;;;;;;;;;18.90;77.70;;;;;;5044334;28;20490;-81
2022/06/23 00:58:23;;;;;;;;;;;18.80;78.80;;;;;;5073594;28;19931;-80
2022/06/23 01:00:53;;;;;;;;;;;18.70;76.90;;;;;;5075297;28;20366;-80
2022/06/23 01:03:21;;;;;;;;;;;18.80;78.40;;;;;;5076300;28;19928;-79
2022/06/23 01:05:52;;;;;;;;;;;18.70;78.90;;;;;;5076142;28;20540;-80
2022/06/23 01:08:22;;;;;;;;;;;18.70;79.00;;;;;;5073090;28;20285;-80
2022/06/23 01:10:54;;;;;;;;;;;18.60;79.10;;;;;;5062493;28;20581;-78
2022/06/23 01:13:24;;;;;;;;;;;18.60;79.40;;;;;;5059043;28;19932;-81
2022/06/23 01:15:54;;;;;;;;;;;18.60;79.60;;;;;;5053234;28;19935;-78
2022/06/23 01:18:22;;;;;;;;;;;18.60;79.60;;;;;;5050662;28;20028;-78
2022/06/23 01:20:54;;;;;;;;;;;18.60;80.00;;;;;;5051313;28;19936;-79
2022/06/23 01:23:38;;;;;;;;;;;18.50;80.10;;;;;;5050648;28;19932;-79
2022/06/23 01:26:23;;;;;;;;;;;18.50;80.20;;;;;;5053682;28;19929;-79
2022/06/23 01:28:57;;;;;;;;;;;18.40;79.60;;;;;;5053298;28;19925;-79
2022/06/23 01:31:26;;;;;;;;;;;18.40;80.60;;;;;;5050384;28;19925;-79
2022/06/23 01:33:54;;;;;;;;;;;18.40;80.70;;;;;;5051396;28;19925;-78
2022/06/23 01:36:24;;;;;;;;;;;18.30;80.70;;;;;;5049552;28;20371;-79
2022/06/23 01:38:56;;;;;;;;;;;18.20;79.90;;;;;;5049931;28;19959;-78
2022/06/23 01:41:26;;;;;;;;;;;18.20;81.10;;;;;;5046349;28;19951;-79
2022/06/23 01:43:59;;;;;;;;;;;18.20;81.30;;;;;;5051913;28;19956;-79
2022/06/23 01:46:30;;;;;;;;;;;18.20;81.60;;;;;;5050790;28;19929;-79
2022/06/23 01:48:59;;;;;;;;;;;18.10;80.40;;;;;;5049687;28;20000;-78
2022/06/23 01:51:28;;;;;;;;;;;18.10;82.00;;;;;;5049970;28;19931;-79
2022/06/23 01:53:56;;;;;;;;;;;18.00;81.90;;;;;;5068013;28;19929;-78
2022/06/23 01:56:28;;;;;;;;;;;18.00;82.30;;;;;;5062586;28;19935;-77
2022/06/23 01:58:58;;;;;;;;;;;17.90;81.10;;;;;;5059468;28;19929;-77
2022/06/23 02:01:31;;;;;;;;;;;17.90;82.60;;;;;;5061040;28;19942;-78
2022/06/23 02:04:01;;;;;;;;;;;17.80;82.60;;;;;;5057654;28;19986;-77
2022/06/23 02:06:31;;;;;;;;;;;17.70;82.70;;;;;;5059695;28;19931;-77
2022/06/23 02:09:03;;;;;;;;;;;17.60;81.30;;;;;;5054819;28;19924;-77
2022/06/23 02:11:34;;;;;;;;;;;17.60;83.10;;;;;;5049239;28;19982;-77
2022/06/23 02:14:06;;;;;;;;;;;17.50;83.30;;;;;;5052997;28;20024;-77
2022/06/23 02:16:39;;;;;;;;;;;17.50;83.70;;;;;;5059726;28;19966;-77
2022/06/23 02:19:12;;;;;;;;;;;17.40;83.80;;;;;;5052715;28;19932;-77
2022/06/23 02:21:40;;;;;;;;;;;17.30;84.20;;;;;;5056628;28;19935;-77
2022/06/23 02:24:11;;;;;;;;;;;17.20;84.40;;;;;;5063536;28;19971;-78
2022/06/23 02:26:40;;;;;;;;;;;17.10;84.60;;;;;;5057709;28;20011;-77
2022/06/23 02:29:14;;;;;;;;;;;17.10;84.90;;;;;;5047223;28;19929;-77
2022/06/23 02:31:43;;;;;;;;;;;17.00;85.10;;;;;;5049418;28;19933;-77
2022/06/23 02:34:13;;;;;;;;;;;16.90;85.30;;;;;;5056343;28;19925;-77
2022/06/23 02:37:00;;;;;;;;;;;16.90;85.60;;;;;;5052483;28;20360;-76
2022/06/23 02:39:35;;;;;;;;;;;16.90;86.00;;;;;;5053322;28;20403;-77
2022/06/23 02:42:04;;;;;;;;;;;16.90;86.30;;;;;;5069365;28;19925;-76
2022/06/23 02:44:44;;;;;;;;;;;16.80;86.50;;;;;;5057618;28;19928;-77
2022/06/23 02:47:18;;;;;;;;;;;16.80;86.90;;;;;;5058484;28;19964;-76
2022/06/23 02:49:53;;;;;;;;;;;16.70;87.20;;;;;;5087792;28;19958;-76
2022/06/23 02:52:37;;;;;;;;;;;16.60;87.40;;;;;;5069683;28;20448;-76
2022/06/23 02:55:13;;;;;;;;;;;16.60;87.70;;;;;;5068864;28;19929;-76
2022/06/23 02:57:44;;;;;;;;;;;16.50;87.90;;;;;;5068415;28;19936;-76
2022/06/23 03:00:17;;;;;;;;;;;16.50;88.10;;;;;;5068557;28;19924;-75
2022/06/23 03:02:48;;;;;;;;;;;16.40;88.50;;;;;;5068429;28;20319;-75
2022/06/23 03:05:19;;;;;;;;;;;16.30;88.70;;;;;;5068006;28;20399;-74
2022/06/23 03:07:49;;;;;;;;;;;16.30;88.90;;;;;;5068596;28;19935;-75
2022/06/23 03:10:19;;;;;;;;;;;16.30;89.30;;;;;;5068046;28;19924;-75
2022/06/23 03:13:06;;;;;;;;;;;16.30;89.60;;;;;;5069867;28;19929;-75
2022/06/23 03:15:37;;;;;;;;;;;16.20;89.60;;;;;;5068962;28;19928;-75
2022/06/23 03:18:07;;;;;;;;;;;16.20;89.90;;;;;;5068258;28;19924;-74
2022/06/23 03:20:37;;;;;;;;;;;16.20;88.90;;;;;;5069458;28;19935;-74
2022/06/23 03:23:07;;;;;;;;;;;16.20;90.60;;;;;;5067893;28;19928;-74
2022/06/23 03:25:37;;;;;;;;;;;16.20;90.30;;;;;;5068130;28;20253;-74
2022/06/23 03:28:06;;;;;;;;;;;16.20;90.80;;;;;;5068595;28;20364;-73
2022/06/23 03:30:39;;;;;;;;;;;16.10;90.60;;;;;;5067376;28;19929;-74
2022/06/23 03:33:11;;;;;;;;;;;16.10;90.40;;;;;;5073441;28;20027;-75
2022/06/23 03:35:41;;;;;;;;;;;16.10;90.80;;;;;;5089508;28;19935;-74
2022/06/23 03:38:13;;;;;;;;;;;16.10;90.90;;;;;;5072235;28;20277;-74
2022/06/23 03:43:34;;;;;;;;;;;16.10;91.20;;;;;;5073509;28;19928;-74
2022/06/23 03:46:07;;;;;;;;;;;16.00;91.20;;;;;;5071541;28;20031;-75
2022/06/23 03:48:37;;;;;;;;;;;16.00;91.40;;;;;;5074060;28;20121;-76
2022/06/23 03:51:06;;;;;;;;;;;16.00;91.60;;;;;;5072055;28;19924;-76
2022/06/23 03:53:36;;;;;;;;;;;16.00;91.70;;;;;;5076140;28;19974;-75
2022/06/23 03:56:05;;;;;;;;;;;16.00;91.80;;;;;;5072503;28;20046;-75
2022/06/23 03:58:34;;;;;;;;;;;15.10;91.60;;;;;;5071977;28;19924;-75
2022/06/23 04:01:05;;;;;;;;;;;16.10;92.20;;;;;;5069633;28;20404;-78
2022/06/23 04:03:35;;;;;;;;;;;16.10;92.20;;;;;;5059124;28;19932;-76
2022/06/23 04:06:21;;;;;;;;;;;16.10;92.20;;;;;;5064593;28;20475;-76
2022/06/23 04:08:51;;;;;;;;;;;16.10;92.00;;;;;;5059555;28;20305;-76
2022/06/23 04:14:05;;;;;;;;;;;16.20;92.70;;;;;;5046812;28;19931;-78
2022/06/23 04:16:34;;;;;;;;;;;16.20;92.90;;;;;;5069118;28;19994;-77
2022/06/23 04:19:05;;;;;;;;;;;16.30;92.30;;;;;;5059104;28;19939;-79
2022/06/23 04:21:41;;;;;;;;;;;16.30;93.20;;;;;;5058920;28;20364;-77
2022/06/23 04:24:14;;;;;;;;;;;16.30;93.30;;;;;;5054003;28;19936;-78
2022/06/23 04:26:43;;;;;;;;;;;16.40;93.50;;;;;;5057344;28;19955;-77
2022/06/23 04:29:11;;;;;;;;;;;16.50;93.70;;;;;;5070591;28;20253;-78
2022/06/23 04:31:41;;;;;;;;;;;16.70;93.60;;;;;;5069385;28;19935;-77
2022/06/23 04:34:14;;;;;;;;;;;16.60;94.00;;;;;;5060047;28;20293;-77
2022/06/23 04:36:43;;;;;;;;;;;16.70;94.10;;;;;;5055272;28;19925;-77
2022/06/23 04:39:20;;;;;;;;;;;16.90;93.50;;;;;;5052825;28;19925;-77
2022/06/23 04:41:51;;;;;;;;;;;16.90;94.00;;;;;;5052687;28;19932;-76
2022/06/23 04:44:19;;;;;;;;;;;17.00;94.50;;;;;;5067565;28;19924;-76
2022/06/23 04:46:49;;;;;;;;;;;17.10;94.70;;;;;;5054184;28;19932;-75
2022/06/23 04:49:19;;;;;;;;;;;17.20;94.80;;;;;;5055876;28;20397;-77
2022/06/23 04:51:50;;;;;;;;;;;17.30;95.00;;;;;;5053413;28;19925;-77
2022/06/23 04:54:19;;;;;;;;;;;17.40;95.10;;;;;;5053694;28;19925;-75
2022/06/23 04:56:47;;;;;;;;;;;17.40;95.20;;;;;;5052467;28;19932;-75
2022/06/23 04:59:35;;;;;;;;;;;17.60;95.40;;;;;;5050810;28;19928;-75
2022/06/23 05:02:13;;;;;;;;;;;17.60;95.50;;;;;;5052377;28;19937;-74
2022/06/23 05:04:44;;;;;;;;;;;17.70;95.50;;;;;;5052329;28;19932;-74
2022/06/23 05:07:18;;;;;;;;;;;17.90;95.80;;;;;;5051946;28;19928;-78
2022/06/23 05:09:45;;;;;;;;;;;18.00;95.90;;;;;;5053115;28;19936;-74
2022/06/23 05:12:17;;;;;;;;;;;18.10;96.10;;;;;;5051228;28;19938;-75
2022/06/23 05:14:46;;;;;;;;;;;18.30;96.20;;;;;;5067714;28;20305;-75
2022/06/23 05:17:17;;;;;;;;;;;18.40;96.50;;;;;;5049871;28;20357;-75
2022/06/23 05:19:44;;;;;;;;;;;18.60;96.60;;;;;;5050488;28;20407;-75
2022/06/23 05:22:19;;;;;;;;;;;18.80;96.00;;;;;;5050114;28;19933;-75
2022/06/23 05:24:47;;;;;;;;;;;18.90;96.80;;;;;;5049969;28;19935;-75
2022/06/23 05:27:22;;;;;;;;;;;19.10;96.90;;;;;;5050782;28;19932;-76
2022/06/23 05:29:53;;;;;;;;;;;19.30;96.90;;;;;;5056381;28;19974;-76
2022/06/23 05:32:25;;;;;;;;;;;19.50;96.90;;;;;;5069128;28;19978;-79
2022/06/23 05:34:56;;;;;;;;;;;20.00;97.00;;;;;;5053312;28;20027;-77
2022/06/23 05:37:25;;;;;;;;;;;21.60;97.10;;;;;;5053495;28;19936;-75
2022/06/23 05:39:56;;;;;;;;;;;23.30;96.80;;;;;;5051851;28;19929;-75
2022/06/23 05:42:29;;;;;;;;;;;25.00;96.40;;;;;;5052758;28;19929;-78
2022/06/23 05:44:59;;;;;;;;;;;28.10;94.90;;;;;;5053404;28;19958;-79
2022/06/23 05:47:29;;;;;;;;;;;29.80;93.00;;;;;;5055102;28;19932;-81
2022/06/23 05:49:58;;;;;;;;;;;29.90;91.20;;;;;;5053564;28;19929;-78
2022/06/23 05:52:28;;;;;;;;;;;31.30;88.80;;;;;;5038943;28;20471;-79
2022/06/23 05:54:58;;;;;;;;;;;32.50;84.80;;;;;;5044401;28;19928;-78
2022/06/23 05:57:28;;;;;;;;;;;33.40;82.00;;;;;;5054026;28;19929;-76
2022/06/23 06:00:03;;;;;;;;;;;35.20;76.50;;;;;;5056603;28;20026;-79
2022/06/23 06:02:39;;;;;;;;;;;35.80;72.80;;;;;;5061022;28;20340;-81
2022/06/23 06:05:08;;;;;;;;;;;36.20;71.70;;;;;;5055846;28;20071;-80
2022/06/23 06:07:37;;;;;;;;;;;36.20;71.20;;;;;;5069216;28;19971;-79
2022/06/23 06:10:06;;;;;;;;;;;36.80;72.20;;;;;;5062898;28;19995;-79
2022/06/23 06:12:34;;;;;;;;;;;36.90;66.90;;;;;;5062326;28;19925;-79
2022/06/23 06:15:06;;;;;;;;;;;37.20;66.80;;;;;;5058117;28;20309;-77
2022/06/23 06:17:35;;;;;;;;;;;37.50;65.60;;;;;;5054208;28;20011;-77
2022/06/23 06:20:04;;;;;;;;;;;37.90;65.40;;;;;;5059804;28;19964;-79
2022/06/23 06:22:43;;;;;;;11.60;4.03;;;38.40;64.20;;;;;;5056130;28;20332;-79
2022/06/23 06:25:21;;;;;;;11.32;3.90;;;38.90;63.40;;;;;;5064002;28;20200;-79
2022/06/23 06:27:49;;;;;;;8.73;4.20;;;;;;;;;;5055058;28;20216;-79
2022/06/23 06:30:20;;;;;;;13.52;4.05;;;39.80;59.70;;;;;;5057698;28;20241;-79
2022/06/23 06:32:49;;;;;;;11.23;4.40;;;40.00;57.30;;;;;;5055460;28;20524;-79
2022/06/23 06:35:28;;;;;;;13.38;4.63;;;39.70;57.30;;;;;;5068081;28;20234;-79
2022/06/23 06:38:04;;;;;;;12.10;4.55;;;39.80;57.10;;;;;;5062550;28;20201;-81
2022/06/23 06:40:36;;;;;;;;;;;39.60;57.80;;;;;;5091231;28;20922;-81
2022/06/23 06:43:06;;;;;;;;;;;39.60;56.30;;;;;;5056070;28;20407;-82
2022/06/23 06:45:34;;;;;;;;;;;39.60;56.90;;;;;;5034847;28;19967;-79
2022/06/23 06:48:02;;;;;;;;;;;39.60;57.30;;;;;;5036134;28;19931;-80
2022/06/23 06:50:35;;;;;;;;;;;39.60;57.10;;;;;;5036514;28;19978;-78
2022/06/23 06:53:05;;;;;;;;;;;39.90;56.60;;;;;;5031021;28;19940;-78
2022/06/23 06:55:36;;;;;;;;;;;40.00;55.70;;;;;;5030199;28;19929;-77
2022/06/23 06:58:08;;;;;;;;;;;39.60;55.70;;;;;;5032569;28;19929;-78
2022/06/23 07:00:37;;;;;;;;;;;39.60;55.80;;;;;;5035134;28;20373;-78
2022/06/23 07:03:06;;;;;;;;;;;39.80;55.50;;;;;;5032884;28;20006;-77
2022/06/23 07:05:41;;;;;;;;;;;39.80;55.50;;;;;;5032579;28;19931;-78
2022/06/23 07:08:11;;;;;;;;;;;40.10;55.90;;;;;;5031548;28;19929;-77
2022/06/23 07:10:42;;;;;;;;;;;40.30;55.70;;;;;;5032260;28;19932;-77
2022/06/23 07:13:14;;;;;;;12.20;5.13;;;40.30;55.50;;;;;;5037266;28;20283;-81
2022/06/23 07:15:48;;;;;;;10.25;4.82;;;40.50;55.70;;;;;;5053314;28;20228;-81
2022/06/23 07:18:23;;;;;;;11.75;4.97;;;40.80;55.10;;;;;;5063701;28;20236;-80
2022/06/23 07:20:59;;;;;;;13.23;5.20;;;41.10;54.90;;;;;;5047689;28;20243;-77
2022/06/23 07:23:33;;;;;;;14.10;5.00;;;41.20;54.50;;;;;;5064780;28;20962;-77
2022/06/23 07:26:21;;;;;;;14.10;5.40;;;41.50;54.40;;;;;;5056577;28;20595;-75
2022/06/23 07:28:53;;;;;;;14.30;5.32;;;42.30;53.50;;;;;;5045309;28;20211;-75
2022/06/23 07:31:25;;;;;;;11.32;4.72;;;42.20;53.60;;;;;;5046889;28;20213;-76
2022/06/23 07:33:57;;;;;;;15.60;5.47;;;42.20;52.90;;;;;;5067558;28;20876;-74
2022/06/23 07:36:30;;;;;;;14.55;5.80;;;42.20;53.60;;;;;;5051520;28;20571;-75
2022/06/23 07:39:03;;;;;;;16.75;5.63;;;42.40;52.20;;;;;;5051405;28;20274;-74
2022/06/23 07:41:38;;;;;;;15.65;5.43;;;42.40;52.10;;;;;;5058642;28;20303;-75
2022/06/23 07:44:10;;;;;;;16.05;5.78;;;42.00;52.00;;;;;;5048313;28;20532;-74
2022/06/23 07:46:39;;;;;;;16.00;6.03;;;41.80;52.40;;;;;;5057421;28;20232;-74
2022/06/23 07:49:08;;;;;;;16.02;6.03;;;41.60;52.80;;;;;;5053135;28;20228;-75
2022/06/23 07:51:37;;;;;;;13.90;5.15;;;41.70;52.90;;;;;;5057833;28;20213;-75
2022/06/23 07:54:06;;;;;;;16.35;5.85;;;41.80;52.40;;;;;;5050098;28;20221;-74
2022/06/23 07:56:37;;;;;;;15.85;5.55;;;41.20;51.90;;;;;;5043818;28;20309;-73
2022/06/23 07:59:09;;;;;;;15.70;5.38;;;40.00;52.70;;;;;;5049205;28;20248;-73
2022/06/23 08:01:43;;;;;;;14.73;4.93;;;40.10;52.80;;;;;;5047221;28;20227;-73
2022/06/23 08:04:16;;;;;;;18.25;5.38;;;39.80;54.00;;;;;;5050991;28;20232;-74
2022/06/23 08:06:45;;;;;;;17.17;5.53;;;39.50;54.30;;;;;;5052792;28;20239;-77
2022/06/23 08:09:25;;;;;;;16.90;5.47;;;39.40;54.40;;;;;;5048479;28;20247;-77
2022/06/23 08:14:49;;;;;;;15.05;5.63;;;39.60;54.20;;;;;;5047668;28;20208;-75
2022/06/23 08:17:17;;;;;;;15.10;5.95;;;39.40;54.40;;;;;;5047294;28;20201;-76
2022/06/23 08:19:52;;;;;;;14.88;5.55;;;39.50;54.10;;;;;;5050551;28;20614;-76
2022/06/23 08:22:27;;;;;;;16.10;5.80;;;39.50;54.10;;;;;;5051129;28;20219;-77
2022/06/23 08:24:58;;;;;;;18.23;5.57;;;39.60;54.40;;;;;;5051964;28;20209;-76
2022/06/23 08:27:28;;;;;;;17.60;6.95;;;39.60;54.00;;;;;;5052224;28;20212;-76
2022/06/23 08:30:05;;;;;;;21.83;7.43;;;39.40;53.60;;;;;;5050224;28;20294;-76
2022/06/23 08:32:32;;;;;;;16.45;5.70;;;39.30;53.90;;;;;;5051538;28;20586;-76
2022/06/23 08:35:04;;;;;;;14.00;5.75;;;39.30;54.30;;;;;;5052101;28;20197;-76
2022/06/23 08:37:42;;;;;;;16.02;5.70;;;39.10;54.60;;;;;;5051419;28;20287;-75
2022/06/23 08:40:20;;;;;;;15.73;6.05;;;38.80;54.20;;;;;;5050616;28;20239;-77
2022/06/23 08:42:53;;;;;;;13.43;5.45;;;38.70;54.80;;;;;;5050903;28;20825;-75
2022/06/23 08:45:39;;;;;;;15.50;6.05;;;38.70;55.10;;;;;;5050485;28;20228;-76
2022/06/23 08:48:12;;;;;;;17.85;5.57;;;38.70;55.60;;;;;;5050980;28;20767;-76
2022/06/23 08:50:43;;;;;;;16.73;5.82;;;38.40;55.10;;;;;;5059616;28;20247;-77
2022/06/23 08:53:28;;;;;;;11.43;5.15;;;38.40;55.60;;;;;;5072686;28;20212;-71
2022/06/23 08:56:01;;;;;;;16.52;5.93;;;38.60;55.30;;;;;;5055431;28;20208;-74
2022/06/23 08:58:35;;;;;;;17.20;5.90;;;38.60;55.50;;;;;;5044018;28;20278;-73
2022/06/23 09:01:09;;;;;;;15.15;5.22;;;38.50;54.10;;;;;;5047461;28;20228;-73
2022/06/23 09:03:48;;;;;;;20.60;5.68;;;38.20;54.80;;;;;;5063762;28;20225;-74
2022/06/23 09:06:37;;;;;;;12.77;4.93;;;38.00;54.40;;;;;;5051269;28;20219;-73
2022/06/23 09:09:23;;;;;;;15.57;5.70;;;37.60;54.20;;;;;;5049876;28;20317;-72
2022/06/23 09:12:00;;;;;;;17.10;5.78;;;37.60;54.60;;;;;;5067647;28;20216;-73
2022/06/23 09:15:00;;;;;;;17.85;5.93;;;37.40;55.10;;;;;;5063140;28;20204;-73
2022/06/23 09:17:54;;;;;;;16.05;5.70;;;37.30;54.80;;;;;;5046576;28;20220;-73
2022/06/23 09:20:46;;;;;;;13.25;5.93;;;37.20;54.50;;;;;;5049882;28;20327;-74
2022/06/23 09:23:31;;;;;;;15.55;6.03;;;37.10;53.60;;;;;;5051099;28;20224;-73
2022/06/23 09:26:12;;;;;;;16.48;5.93;;;36.80;54.20;;;;;;5045740;28;20654;-72
2022/06/23 09:28:51;;;;;;;14.85;5.70;;;35.80;55.70;;;;;;5052911;28;20216;-73
2022/06/23 09:31:27;;;;;;;17.52;6.28;;;35.80;56.20;;;;;;5054134;28;20212;-72
2022/06/23 09:34:13;;;;;;;13.70;5.22;;;35.80;56.50;;;;;;5049913;28;20226;-71
2022/06/23 09:37:26;;;;;;;12.48;4.95;;;35.70;56.60;;;;;;5069610;28;20303;-72
2022/06/23 09:40:29;;;;;;;14.32;5.30;;;35.50;55.90;;;;;;5042761;28;20243;-73
2022/06/23 09:43:38;;;;;;;12.68;5.20;;;35.40;56.70;;;;;;5058958;28;20305;-71
2022/06/23 09:46:38;;;;;;;13.80;5.45;;;35.60;57.30;;;;;;5056487;28;20368;-73
2022/06/23 09:49:32;;;;;;;19.27;6.25;;;34.90;56.10;;;;;;5049597;28;20676;-74
2022/06/23 09:52:23;;;;;;;14.77;5.53;;;34.90;57.30;;;;;;5059844;28;20248;-73
2022/06/23 09:55:12;;;;;;;15.13;5.35;;;34.70;56.70;;;;;;5068931;28;20230;-74
2022/06/23 09:58:07;;;;;;;16.65;5.45;;;34.80;57.80;;;;;;5064692;28;20265;-74
2022/06/23 10:00:45;;;;;;;14.20;5.50;;;34.90;57.60;;;;;;5052702;28;20232;-72
2022/06/23 10:03:32;;;;;;;15.07;5.10;;;34.80;57.80;;;;;;5049743;28;20208;-73
2022/06/23 10:06:22;;;;;;;15.95;5.05;;;34.60;56.90;;;;;;5049628;28;20224;-74
2022/06/23 10:09:00;;;;;;;16.90;5.63;;;33.60;57.10;;;;;;5049299;28;20220;-72
2022/06/23 10:11:50;;;;;;;17.40;5.72;;;33.60;57.80;;;;;;5036992;28;20728;-72
2022/06/23 10:14:37;;;;;;;18.70;5.90;;;33.00;58.00;;;;;;5034650;28;20193;-73
2022/06/23 10:17:31;;;;;;;11.17;4.80;;;32.50;58.70;;;;;;5069787;28;20246;-72
2022/06/23 10:20:18;;;;;;;16.30;5.90;;;32.10;59.80;;;;;;5068600;28;20220;-73
2022/06/23 10:23:24;;;;;;;14.87;5.40;;;31.60;60.20;;;;;;5067996;28;20277;-73
2022/06/23 10:26:09;;;;;;;11.97;5.03;;;31.60;60.60;;;;;;5059970;28;20223;-74
2022/06/23 10:29:10;;;;;;;15.00;5.77;;;31.40;61.40;;;;;;5060198;28;20212;-73
2022/06/23 10:31:55;;;;;;;16.23;6.03;;;31.10;61.90;;;;;;5028937;28;20234;-73
2022/06/23 10:34:30;;;;;;;;;;;31.00;63.00;;;;;;5045806;28;20212;-73
2022/06/23 10:37:05;;;;;;;;;;;30.90;63.20;;;;;;5030861;28;20440;-74
2022/06/23 10:39:41;;;;;;;;;;;30.80;63.20;;;;;;5049136;28;20377;-74
2022/06/23 10:42:15;;;;;;;;;;;30.70;63.90;;;;;;5048808;28;20003;-72
2022/06/23 10:45:08;;;;;;;;;;;30.70;63.80;;;;;;5065798;28;19998;-74
2022/06/23 10:47:50;;;;;;;;;;;30.60;63.60;;;;;;5068734;28;20415;-73
2022/06/23 10:50:33;;;;;;;;;;;30.50;64.60;;;;;;5071226;28;20018;-73
2022/06/23 10:53:08;;;;;;;;;;;30.50;65.10;;;;;;5054734;28;19971;-74
2022/06/23 10:55:52;;;;;;;;;;;30.60;64.70;;;;;;5063281;28;20662;-74
2022/06/23 10:58:26;;;;;;;;;;;30.60;65.60;;;;;;5060484;28;19947;-75
2022/06/23 11:00:58;;;;;;;;;;;30.80;64.10;;;;;;5052730;28;19927;-79
2022/06/23 11:03:40;;;;;;;;;;;30.80;65.00;;;;;;5071996;28;19956;-77
2022/06/23 11:06:12;;;;;;;;;;;30.80;65.80;;;;;;5068354;28;19954;-78
2022/06/23 11:08:48;;;;;;;;;;;30.80;66.00;;;;;;5061334;28;19920;-75
2022/06/23 11:11:25;;;;;;;;;;;30.90;65.20;;;;;;5069171;28;20394;-76
2022/06/23 11:13:56;;;;;;;;;;;31.00;65.60;;;;;;5064096;28;19920;-76
2022/06/23 11:16:34;;;;;;;;;;;31.10;65.70;;;;;;5053308;28;20010;-74
2022/06/23 11:19:15;;;;;;;;;;;31.20;64.60;;;;;;5055402;28;19986;-74
2022/06/23 11:21:57;;;;;;;;;;;31.20;64.70;;;;;;5052525;28;19921;-77
2022/06/23 11:24:33;;;;;;;;;;;31.30;65.30;;;;;;5052741;28;20028;-75
2022/06/23 11:27:06;;;;;;;;;;;31.70;64.70;;;;;;5048839;28;20015;-77
2022/06/23 11:29:45;;;;;;;;;;;31.90;64.40;;;;;;5068275;28;19920;-78
2022/06/23 11:32:24;;;;;;;;;;;32.00;64.30;;;;;;5058834;28;20312;-77
2022/06/23 11:35:04;;;;;;;;;;;32.00;63.70;;;;;;5051436;28;19927;-77
2022/06/23 11:37:42;;;;;;;;;;;32.00;64.30;;;;;;5070779;28;20329;-73
2022/06/23 11:40:16;;;;;;;;;;;32.00;64.10;;;;;;5068769;28;19924;-74
2022/06/23 11:42:53;;;;;;;;;;;32.00;64.90;;;;;;5069062;28;20372;-74
2022/06/23 11:45:25;;;;;;;;;;;32.10;65.30;;;;;;5069249;28;19924;-75
2022/06/23 11:48:01;;;;;;;;;;;32.00;63.80;;;;;;5068799;28;19920;-75
2022/06/23 11:50:35;;;;;;;;;;;32.10;63.80;;;;;;5069032;28;19924;-73
2022/06/23 11:53:07;;;;;;;;;;;32.10;64.50;;;;;;5053900;28;20538;-75
2022/06/23 11:55:39;;;;;;;;;;;32.20;64.70;;;;;;5067066;28;19940;-76
2022/06/23 11:58:22;;;;;;;;;;;32.30;64.20;;;;;;5070089;28;19920;-76
2022/06/23 12:00:56;;;;;;;;;;;32.30;63.50;;;;;;5050794;28;19952;-74
2022/06/23 12:03:34;;;;;;;;;;;32.30;64.30;;;;;;5047648;28;19920;-73
2022/06/23 12:06:09;;;;;;;;;;;32.20;64.90;;;;;;5069101;28;19928;-75
2022/06/23 12:08:40;;;;;;;;;;;32.20;65.00;;;;;;5070655;28;19990;-80
2022/06/23 12:11:09;;;;;;;;;;;32.30;64.00;;;;;;5054670;28;19935;-79
2022/06/23 12:13:37;;;;;;;;;;;32.30;63.60;;;;;;5054629;28;19920;-80
2022/06/23 12:16:07;;;;;;;;;;;32.30;63.40;;;;;;5065782;28;19924;-81
2022/06/23 12:18:37;;;;;;;;;;;32.30;64.10;;;;;;5061478;28;19996;-77
2022/06/23 12:21:10;;;;;;;;;;;32.30;63.60;;;;;;5053295;28;20045;-77
2022/06/23 12:23:40;;;;;;;;;;;32.30;64.50;;;;;;5061785;28;19936;-76
2022/06/23 12:26:13;;;;;;;;;;;32.40;64.20;;;;;;5058237;28;19924;-77
2022/06/23 12:28:42;;;;;;;;;;;32.50;64.60;;;;;;5072122;28;19921;-76
2022/06/23 12:31:18;;;;;;;;;;;32.60;64.40;;;;;;5073069;28;19963;-77
2022/06/23 12:33:49;;;;;;;;;;;32.90;64.40;;;;;;5072067;28;19927;-77
2022/06/23 12:36:21;;;;;;;;;;;32.90;63.80;;;;;;5047944;28;19920;-77
2022/06/23 12:38:50;;;;;;;;;;;33.00;63.00;;;;;;5068117;28;20567;-77
2022/06/23 12:41:22;;;;;;;;;;;33.00;63.50;;;;;;5048522;28;19921;-76
2022/06/23 12:43:51;;;;;;;;;;;33.00;63.50;;;;;;5054367;28;20388;-77
2022/06/23 12:46:22;;;;;;;;;;;33.10;63.80;;;;;;5037418;28;19924;-77
2022/06/23 12:48:56;;;;;;;;;;;33.50;62.90;;;;;;5051267;28;19929;-77
2022/06/23 12:51:27;;;;;;;;;;;33.40;63.50;;;;;;5052923;28;19921;-76
2022/06/23 12:54:03;;;;;;;;;;;33.60;62.30;;;;;;5047000;28;19947;-77
2022/06/23 12:56:41;;;;;;;;;;;33.60;61.90;;;;;;5051552;28;19940;-77
2022/06/23 12:59:11;;;;;;;;;;;33.40;61.80;;;;;;5063869;28;19924;-78
2022/06/23 13:01:40;;;;;;;;;;;33.40;62.60;;;;;;5054941;28;19959;-77
2022/06/23 13:04:12;;;;;;;;;;;33.40;62.40;;;;;;5057628;28;19916;-77
2022/06/23 13:06:43;;;;;;;;;;;33.50;62.20;;;;;;5050117;28;19921;-77
2022/06/23 13:09:18;;;;;;;;;;;33.20;61.50;;;;;;5059176;28;19954;-77
2022/06/23 13:11:50;;;;;;;;;;;33.20;62.20;;;;;;5054786;28;19932;-77
2022/06/23 13:14:19;;;;;;;;;;;33.20;62.60;;;;;;5056856;28;19934;-76
2022/06/23 13:16:50;;;;;;;;;;;33.30;62.50;;;;;;5062382;28;20384;-77
2022/06/23 13:19:20;;;;;;;;;;;33.30;61.20;;;;;;5068464;28;19924;-75
2022/06/23 13:21:48;;;;;;;;;;;33.40;61.90;;;;;;5055693;28;19920;-75
2022/06/23 13:24:17;;;;;;;;;;;33.40;61.60;;;;;;5047791;28;19928;-76
2022/06/23 13:26:45;;;;;;;;;;;33.50;61.30;;;;;;5059231;28;19932;-77
2022/06/23 13:29:17;;;;;;;;;;;33.60;60.50;;;;;;5059988;28;19943;-76
2022/06/23 13:31:46;;;;;;;;;;;33.60;61.30;;;;;;5056790;28;19924;-76
2022/06/23 13:34:16;;;;;;;;;;;33.60;61.10;;;;;;5054173;28;19924;-76
2022/06/23 13:36:46;;;;;;;;;;;33.50;61.50;;;;;;5070176;28;19924;-76
2022/06/23 13:39:19;;;;;;;;;;;33.60;61.30;;;;;;5086266;28;19964;-75
2022/06/23 13:41:50;;;;;;;;;;;33.70;61.40;;;;;;5049874;28;20023;-76
2022/06/23 13:44:25;;;;;;;;;;;34.00;61.20;;;;;;5047279;28;20015;-76
2022/06/23 13:46:55;;;;;;;;;;;34.10;60.50;;;;;;5069881;28;19920;-77
2022/06/23 13:49:25;;;;;;;;;;;34.00;60.00;;;;;;5071619;28;19920;-73
2022/06/23 13:51:55;;;;;;;;;;;34.00;60.20;;;;;;5056514;28;19963;-73
2022/06/23 13:54:28;;;;;;;;;;;34.10;60.40;;;;;;5049771;28;19967;-73
2022/06/23 13:56:59;;;;;;;;;;;34.10;60.20;;;;;;5055661;28;20394;-75
2022/06/23 13:59:29;;;;;;;;;;;34.20;59.30;;;;;;5049953;28;19928;-76
2022/06/23 14:01:58;;;;;;;;;;;34.30;59.10;;;;;;5044291;28;19920;-74
2022/06/23 14:04:36;;;;;;;;;;;34.20;59.20;;;;;;5047085;28;19928;-73
2022/06/23 14:07:09;;;;;;;;;;;34.10;59.40;;;;;;5050828;28;19924;-76
2022/06/23 14:09:41;;;;;;;;;;;33.80;59.10;;;;;;5069392;28;19924;-75
2022/06/23 14:12:11;;;;;;;;;;;33.80;59.70;;;;;;5062445;28;20015;-75
2022/06/23 14:14:43;;;;;;;;;;;33.80;60.00;;;;;;5049557;28;19920;-75
2022/06/23 14:17:12;;;;;;;;;;;33.90;60.00;;;;;;5050548;28;20364;-72
2022/06/23 14:19:43;;;;;;;;;;;33.90;59.60;;;;;;5047880;28;19928;-74
2022/06/23 14:22:15;;;;;;;;;;;33.80;59.40;;;;;;5055438;28;19920;-73
2022/06/23 14:24:46;;;;;;;;;;;33.80;59.70;;;;;;5058196;28;19920;-72
2022/06/23 14:27:17;;;;;;;;;;;33.70;59.10;;;;;;5036101;28;19991;-73
2022/06/23 14:29:48;;;;;;;;;;;33.80;58.80;;;;;;5042684;28;19960;-72
2022/06/23 14:32:20;;;;;;;;;;;33.90;59.20;;;;;;5060385;28;20044;-73
2022/06/23 14:34:50;;;;;;;;;;;33.90;59.30;;;;;;5061208;28;20028;-71
2022/06/23 14:37:21;;;;;;;;;;;33.90;59.70;;;;;;5066873;28;20295;-71